sensor_id;sensor_type;location;lat;lon;timestamp;P1;durP1;ratioP1;P2;durP2;ratioP2
68108;SDS011;54893;49.864;19.084;2023-12-28T00:02:30;33.00;;;10.05;;
68108;SDS011;54893;49.864;19.084;2023-12-28T00:07:31;22.48;;;7.28;;
68108;SDS011;54893;49.864;19.084;2023-12-28T00:12:31;29.50;;;9.67;;
68108;SDS011;54893;49.864;19.084;2023-12-28T00:17:32;22.95;;;7.60;;
68108;SDS011;54893;49.864;19.084;2023-12-28T00:22:32;44.83;;;11.20;;
68108;SDS011;54893;49.864;19.084;2023-12-28T00:27:32;35.35;;;12.27;;
68108;SDS011;54893;49.864;19.084;2023-12-28T00:32:37;41.97;;;17.23;;
68108;SDS011;54893;49.864;19.084;2023-12-28T00:37:38;39.93;;;16.00;;
68108;SDS011;54893;49.864;19.084;2023-12-28T00:42:38;36.67;;;13.37;;
68108;SDS011;54893;49.864;19.084;2023-12-28T00:47:40;34.22;;;12.40;;
68108;SDS011;54893;49.864;19.084;2023-12-28T00:52:43;32.60;;;11.30;;
68108;SDS011;54893;49.864;19.084;2023-12-28T00:57:43;26.93;;;10.67;;
68108;SDS011;54893;49.864;19.084;2023-12-28T01:02:44;31.67;;;13.07;;
68108;SDS011;54893;49.864;19.084;2023-12-28T01:07:46;31.80;;;11.43;;
68108;SDS011;54893;49.864;19.084;2023-12-28T01:12:47;20.10;;;8.97;;
68108;SDS011;54893;49.864;19.084;2023-12-28T01:17:47;27.77;;;8.63;;
68108;SDS011;54893;49.864;19.084;2023-12-28T01:22:48;23.47;;;8.07;;
68108;SDS011;54893;49.864;19.084;2023-12-28T01:27:50;16.05;;;5.20;;
68108;SDS011;54893;49.864;19.084;2023-12-28T01:32:50;17.00;;;6.00;;
68108;SDS011;54893;49.864;19.084;2023-12-28T01:37:51;14.47;;;5.00;;
68108;SDS011;54893;49.864;19.084;2023-12-28T01:42:51;15.57;;;6.10;;
68108;SDS011;54893;49.864;19.084;2023-12-28T01:47:52;13.10;;;5.17;;
68108;SDS011;54893;49.864;19.084;2023-12-28T01:52:56;12.93;;;3.63;;
68108;SDS011;54893;49.864;19.084;2023-12-28T01:57:59;12.88;;;4.18;;
68108;SDS011;54893;49.864;19.084;2023-12-28T02:03:00;9.97;;;4.40;;
68108;SDS011;54893;49.864;19.084;2023-12-28T02:08:01;11.00;;;3.92;;
68108;SDS011;54893;49.864;19.084;2023-12-28T02:13:02;10.87;;;3.33;;
68108;SDS011;54893;49.864;19.084;2023-12-28T02:18:05;10.30;;;4.20;;
68108;SDS011;54893;49.864;19.084;2023-12-28T02:23:16;10.30;;;4.05;;
68108;SDS011;54893;49.864;19.084;2023-12-28T02:28:16;9.13;;;3.57;;
68108;SDS011;54893;49.864;19.084;2023-12-28T02:33:33;8.37;;;3.53;;
68108;SDS011;54893;49.864;19.084;2023-12-28T02:38:38;8.53;;;3.57;;
68108;SDS011;54893;49.864;19.084;2023-12-28T02:43:39;10.88;;;3.92;;
68108;SDS011;54893;49.864;19.084;2023-12-28T02:48:39;10.20;;;3.73;;
68108;SDS011;54893;49.864;19.084;2023-12-28T02:53:40;10.20;;;4.63;;
68108;SDS011;54893;49.864;19.084;2023-12-28T02:58:40;10.43;;;3.60;;
68108;SDS011;54893;49.864;19.084;2023-12-28T03:03:41;9.53;;;3.73;;
68108;SDS011;54893;49.864;19.084;2023-12-28T03:08:41;9.53;;;3.80;;
68108;SDS011;54893;49.864;19.084;2023-12-28T03:13:41;9.40;;;3.40;;
68108;SDS011;54893;49.864;19.084;2023-12-28T03:18:42;8.57;;;3.67;;
68108;SDS011;54893;49.864;19.084;2023-12-28T03:23:42;8.30;;;3.20;;
68108;SDS011;54893;49.864;19.084;2023-12-28T03:28:43;9.60;;;3.10;;
68108;SDS011;54893;49.864;19.084;2023-12-28T03:33:43;6.73;;;2.33;;
68108;SDS011;54893;49.864;19.084;2023-12-28T03:38:43;8.10;;;3.03;;
68108;SDS011;54893;49.864;19.084;2023-12-28T03:43:44;9.10;;;3.60;;
68108;SDS011;54893;49.864;19.084;2023-12-28T03:48:45;7.83;;;3.40;;
68108;SDS011;54893;49.864;19.084;2023-12-28T03:53:46;7.93;;;3.53;;
68108;SDS011;54893;49.864;19.084;2023-12-28T03:58:46;7.87;;;3.27;;
68108;SDS011;54893;49.864;19.084;2023-12-28T04:03:47;9.50;;;3.70;;
68108;SDS011;54893;49.864;19.084;2023-12-28T04:08:48;8.23;;;3.10;;
68108;SDS011;54893;49.864;19.084;2023-12-28T04:13:49;7.50;;;3.07;;
68108;SDS011;54893;49.864;19.084;2023-12-28T04:18:49;7.70;;;2.90;;
68108;SDS011;54893;49.864;19.084;2023-12-28T04:23:50;10.53;;;3.00;;
68108;SDS011;54893;49.864;19.084;2023-12-28T04:28:50;10.00;;;3.30;;
68108;SDS011;54893;49.864;19.084;2023-12-28T04:33:50;7.60;;;2.90;;
68108;SDS011;54893;49.864;19.084;2023-12-28T04:38:51;8.30;;;3.27;;
68108;SDS011;54893;49.864;19.084;2023-12-28T04:43:52;9.77;;;3.40;;
68108;SDS011;54893;49.864;19.084;2023-12-28T04:48:53;9.57;;;3.90;;
68108;SDS011;54893;49.864;19.084;2023-12-28T04:53:53;9.63;;;3.70;;
68108;SDS011;54893;49.864;19.084;2023-12-28T04:58:53;9.13;;;3.53;;
68108;SDS011;54893;49.864;19.084;2023-12-28T05:03:54;10.73;;;4.00;;
68108;SDS011;54893;49.864;19.084;2023-12-28T05:08:54;7.83;;;2.73;;
68108;SDS011;54893;49.864;19.084;2023-12-28T05:13:54;9.63;;;4.00;;
68108;SDS011;54893;49.864;19.084;2023-12-28T05:18:55;7.93;;;3.20;;
68108;SDS011;54893;49.864;19.084;2023-12-28T05:23:55;7.60;;;3.10;;
68108;SDS011;54893;49.864;19.084;2023-12-28T05:28:55;8.83;;;2.90;;
68108;SDS011;54893;49.864;19.084;2023-12-28T05:33:56;8.57;;;3.70;;
68108;SDS011;54893;49.864;19.084;2023-12-28T05:38:58;10.57;;;3.43;;
68108;SDS011;54893;49.864;19.084;2023-12-28T05:43:58;7.20;;;3.43;;
68108;SDS011;54893;49.864;19.084;2023-12-28T05:48:59;12.70;;;4.43;;
68108;SDS011;54893;49.864;19.084;2023-12-28T05:53:59;20.10;;;8.63;;
68108;SDS011;54893;49.864;19.084;2023-12-28T05:58:59;31.30;;;12.43;;
68108;SDS011;54893;49.864;19.084;2023-12-28T06:04:00;55.37;;;19.23;;
68108;SDS011;54893;49.864;19.084;2023-12-28T06:09:00;73.00;;;29.30;;
68108;SDS011;54893;49.864;19.084;2023-12-28T06:14:03;71.00;;;28.05;;
68108;SDS011;54893;49.864;19.084;2023-12-28T06:19:03;66.53;;;27.47;;
68108;SDS011;54893;49.864;19.084;2023-12-28T06:24:04;75.77;;;28.90;;
68108;SDS011;54893;49.864;19.084;2023-12-28T06:29:04;78.47;;;30.57;;
68108;SDS011;54893;49.864;19.084;2023-12-28T06:34:05;74.90;;;29.23;;
68108;SDS011;54893;49.864;19.084;2023-12-28T06:39:06;74.93;;;29.50;;
68108;SDS011;54893;49.864;19.084;2023-12-28T06:44:06;95.43;;;35.57;;
68108;SDS011;54893;49.864;19.084;2023-12-28T06:49:07;74.40;;;28.80;;
68108;SDS011;54893;49.864;19.084;2023-12-28T06:54:07;65.50;;;24.37;;
68108;SDS011;54893;49.864;19.084;2023-12-28T06:59:07;57.83;;;20.60;;
68108;SDS011;54893;49.864;19.084;2023-12-28T07:04:12;60.40;;;24.48;;
68108;SDS011;54893;49.864;19.084;2023-12-28T07:09:12;42.00;;;17.13;;
68108;SDS011;54893;49.864;19.084;2023-12-28T07:14:12;50.67;;;18.67;;
68108;SDS011;54893;49.864;19.084;2023-12-28T07:19:13;46.43;;;16.60;;
68108;SDS011;54893;49.864;19.084;2023-12-28T07:24:13;11.97;;;4.23;;
68108;SDS011;54893;49.864;19.084;2023-12-28T07:29:13;7.90;;;3.10;;
68108;SDS011;54893;49.864;19.084;2023-12-28T07:34:14;9.60;;;3.90;;
68108;SDS011;54893;49.864;19.084;2023-12-28T07:39:14;9.97;;;4.20;;
68108;SDS011;54893;49.864;19.084;2023-12-28T07:44:15;8.40;;;3.50;;
68108;SDS011;54893;49.864;19.084;2023-12-28T07:49:16;6.90;;;2.77;;
68108;SDS011;54893;49.864;19.084;2023-12-28T07:54:17;8.82;;;2.35;;
68108;SDS011;54893;49.864;19.084;2023-12-28T07:59:17;8.13;;;2.83;;
68108;SDS011;54893;49.864;19.084;2023-12-28T08:04:18;8.33;;;3.10;;
68108;SDS011;54893;49.864;19.084;2023-12-28T08:09:18;6.63;;;2.37;;
68108;SDS011;54893;49.864;19.084;2023-12-28T08:14:19;7.47;;;2.70;;
68108;SDS011;54893;49.864;19.084;2023-12-28T08:19:19;7.90;;;2.83;;
68108;SDS011;54893;49.864;19.084;2023-12-28T08:24:19;8.10;;;3.20;;
68108;SDS011;54893;49.864;19.084;2023-12-28T08:29:20;9.23;;;2.90;;
68108;SDS011;54893;49.864;19.084;2023-12-28T08:34:20;8.47;;;3.10;;
68108;SDS011;54893;49.864;19.084;2023-12-28T08:39:21;7.83;;;3.07;;
68108;SDS011;54893;49.864;19.084;2023-12-28T08:44:21;6.57;;;2.60;;
68108;SDS011;54893;49.864;19.084;2023-12-28T08:49:21;7.13;;;2.67;;
68108;SDS011;54893;49.864;19.084;2023-12-28T08:54:22;6.07;;;2.60;;
68108;SDS011;54893;49.864;19.084;2023-12-28T08:59:22;7.27;;;2.73;;
68108;SDS011;54893;49.864;19.084;2023-12-28T09:04:23;6.17;;;2.90;;
68108;SDS011;54893;49.864;19.084;2023-12-28T09:09:23;5.60;;;2.90;;
68108;SDS011;54893;49.864;19.084;2023-12-28T09:14:24;8.33;;;3.17;;
68108;SDS011;54893;49.864;19.084;2023-12-28T09:19:24;6.53;;;2.63;;
68108;SDS011;54893;49.864;19.084;2023-12-28T09:24:24;8.07;;;2.77;;
68108;SDS011;54893;49.864;19.084;2023-12-28T09:29:25;7.43;;;2.70;;
68108;SDS011;54893;49.864;19.084;2023-12-28T09:34:25;7.53;;;2.70;;
68108;SDS011;54893;49.864;19.084;2023-12-28T09:39:25;6.67;;;2.80;;
68108;SDS011;54893;49.864;19.084;2023-12-28T09:44:26;5.33;;;2.30;;
68108;SDS011;54893;49.864;19.084;2023-12-28T09:49:27;7.05;;;2.42;;
68108;SDS011;54893;49.864;19.084;2023-12-28T09:54:29;7.32;;;2.40;;
68108;SDS011;54893;49.864;19.084;2023-12-28T09:59:29;6.60;;;2.70;;
68108;SDS011;54893;49.864;19.084;2023-12-28T10:04:32;8.50;;;2.80;;
68108;SDS011;54893;49.864;19.084;2023-12-28T10:09:32;6.67;;;2.43;;
68108;SDS011;54893;49.864;19.084;2023-12-28T10:14:33;5.37;;;2.50;;
68108;SDS011;54893;49.864;19.084;2023-12-28T10:19:34;5.97;;;2.83;;
68108;SDS011;54893;49.864;19.084;2023-12-28T10:24:34;6.57;;;2.30;;
68108;SDS011;54893;49.864;19.084;2023-12-28T10:29:42;13.02;;;5.00;;
68108;SDS011;54893;49.864;19.084;2023-12-28T10:34:43;20.90;;;8.80;;
68108;SDS011;54893;49.864;19.084;2023-12-28T10:39:44;19.80;;;8.37;;
68108;SDS011;54893;49.864;19.084;2023-12-28T10:44:47;24.88;;;10.25;;
68108;SDS011;54893;49.864;19.084;2023-12-28T10:49:52;27.05;;;11.95;;
68108;SDS011;54893;49.864;19.084;2023-12-28T11:05:20;27.47;;;12.27;;
68108;SDS011;54893;49.864;19.084;2023-12-28T11:10:22;21.25;;;8.65;;
68108;SDS011;54893;49.864;19.084;2023-12-28T11:15:24;28.15;;;12.07;;
68108;SDS011;54893;49.864;19.084;2023-12-28T11:20:26;26.13;;;11.38;;
68108;SDS011;54893;49.864;19.084;2023-12-28T11:25:30;20.98;;;7.53;;
68108;SDS011;54893;49.864;19.084;2023-12-28T11:30:31;15.50;;;5.10;;
68108;SDS011;54893;49.864;19.084;2023-12-28T11:35:36;11.40;;;4.65;;
68108;SDS011;54893;49.864;19.084;2023-12-28T11:40:42;8.48;;;3.90;;
68108;SDS011;54893;49.864;19.084;2023-12-28T11:45:50;7.13;;;3.88;;
68108;SDS011;54893;49.864;19.084;2023-12-28T11:50:55;6.80;;;3.10;;
68108;SDS011;54893;49.864;19.084;2023-12-28T11:56:00;7.90;;;2.87;;
68108;SDS011;54893;49.864;19.084;2023-12-28T12:01:05;6.97;;;2.72;;
68108;SDS011;54893;49.864;19.084;2023-12-28T12:06:06;7.28;;;3.15;;
68108;SDS011;54893;49.864;19.084;2023-12-28T12:11:06;7.53;;;3.35;;
68108;SDS011;54893;49.864;19.084;2023-12-28T12:16:07;6.90;;;3.50;;
68108;SDS011;54893;49.864;19.084;2023-12-28T12:21:08;6.63;;;3.60;;
68108;SDS011;54893;49.864;19.084;2023-12-28T12:26:08;10.13;;;3.07;;
68108;SDS011;54893;49.864;19.084;2023-12-28T12:31:08;6.50;;;2.67;;
68108;SDS011;54893;49.864;19.084;2023-12-28T12:36:09;8.67;;;3.10;;
68108;SDS011;54893;49.864;19.084;2023-12-28T12:41:10;8.05;;;3.63;;
68108;SDS011;54893;49.864;19.084;2023-12-28T12:46:11;7.37;;;3.47;;
68108;SDS011;54893;49.864;19.084;2023-12-28T12:51:12;6.78;;;3.00;;
68108;SDS011;54893;49.864;19.084;2023-12-28T12:56:12;9.10;;;3.10;;
68108;SDS011;54893;49.864;19.084;2023-12-28T13:01:13;9.05;;;3.25;;
68108;SDS011;54893;49.864;19.084;2023-12-28T13:06:14;7.73;;;3.20;;
68108;SDS011;54893;49.864;19.084;2023-12-28T13:11:14;7.40;;;3.70;;
68108;SDS011;54893;49.864;19.084;2023-12-28T13:16:15;8.50;;;3.50;;
68108;SDS011;54893;49.864;19.084;2023-12-28T13:21:16;9.53;;;3.43;;
68108;SDS011;54893;49.864;19.084;2023-12-28T13:26:16;9.38;;;3.47;;
68108;SDS011;54893;49.864;19.084;2023-12-28T13:31:17;9.18;;;3.35;;
68108;SDS011;54893;49.864;19.084;2023-12-28T13:36:19;10.77;;;3.60;;
68108;SDS011;54893;49.864;19.084;2023-12-28T13:41:19;8.93;;;3.00;;
68108;SDS011;54893;49.864;19.084;2023-12-28T13:46:19;8.32;;;3.67;;
68108;SDS011;54893;49.864;19.084;2023-12-28T13:51:20;9.47;;;3.67;;
68108;SDS011;54893;49.864;19.084;2023-12-28T13:56:20;10.80;;;4.20;;
68108;SDS011;54893;49.864;19.084;2023-12-28T14:01:20;10.47;;;4.73;;
68108;SDS011;54893;49.864;19.084;2023-12-28T14:06:21;9.67;;;4.47;;
68108;SDS011;54893;49.864;19.084;2023-12-28T14:11:21;10.20;;;4.30;;
68108;SDS011;54893;49.864;19.084;2023-12-28T14:16:22;8.93;;;4.50;;
68108;SDS011;54893;49.864;19.084;2023-12-28T14:21:22;10.67;;;4.50;;
68108;SDS011;54893;49.864;19.084;2023-12-28T14:26:23;10.20;;;4.75;;
68108;SDS011;54893;49.864;19.084;2023-12-28T14:31:24;12.73;;;5.27;;
68108;SDS011;54893;49.864;19.084;2023-12-28T14:36:32;13.80;;;5.40;;
68108;SDS011;54893;49.864;19.084;2023-12-28T14:41:34;13.48;;;5.30;;
68108;SDS011;54893;49.864;19.084;2023-12-28T14:46:35;13.52;;;5.90;;
68108;SDS011;54893;49.864;19.084;2023-12-28T14:51:36;12.33;;;5.50;;
68108;SDS011;54893;49.864;19.084;2023-12-28T14:56:36;16.83;;;5.40;;
68108;SDS011;54893;49.864;19.084;2023-12-28T15:01:36;11.83;;;6.30;;
68108;SDS011;54893;49.864;19.084;2023-12-28T15:06:37;13.57;;;6.20;;
68108;SDS011;54893;49.864;19.084;2023-12-28T15:11:37;15.60;;;6.57;;
68108;SDS011;54893;49.864;19.084;2023-12-28T15:16:38;19.25;;;9.45;;
68108;SDS011;54893;49.864;19.084;2023-12-28T15:21:39;20.30;;;9.17;;
68108;SDS011;54893;49.864;19.084;2023-12-28T15:26:40;21.63;;;9.17;;
68108;SDS011;54893;49.864;19.084;2023-12-28T15:31:41;21.20;;;10.35;;
68108;SDS011;54893;49.864;19.084;2023-12-28T15:36:41;23.60;;;10.67;;
68108;SDS011;54893;49.864;19.084;2023-12-28T15:41:42;28.20;;;11.73;;
68108;SDS011;54893;49.864;19.084;2023-12-28T15:46:43;28.77;;;12.37;;
68108;SDS011;54893;49.864;19.084;2023-12-28T15:51:43;40.93;;;16.80;;
68108;SDS011;54893;49.864;19.084;2023-12-28T15:56:43;37.57;;;13.80;;
68108;SDS011;54893;49.864;19.084;2023-12-28T16:01:44;31.63;;;12.00;;
68108;SDS011;54893;49.864;19.084;2023-12-28T16:06:44;35.60;;;12.83;;
68108;SDS011;54893;49.864;19.084;2023-12-28T16:11:44;30.00;;;12.83;;
68108;SDS011;54893;49.864;19.084;2023-12-28T16:16:45;41.10;;;15.10;;
68108;SDS011;54893;49.864;19.084;2023-12-28T16:21:46;28.17;;;12.73;;
68108;SDS011;54893;49.864;19.084;2023-12-28T16:26:47;30.08;;;12.20;;
68108;SDS011;54893;49.864;19.084;2023-12-28T16:31:48;25.45;;;10.13;;
68108;SDS011;54893;49.864;19.084;2023-12-28T16:36:48;23.77;;;9.90;;
68108;SDS011;54893;49.864;19.084;2023-12-28T16:41:49;21.57;;;8.90;;
68108;SDS011;54893;49.864;19.084;2023-12-28T16:46:49;23.58;;;9.25;;
68108;SDS011;54893;49.864;19.084;2023-12-28T16:51:50;21.50;;;9.07;;
68108;SDS011;54893;49.864;19.084;2023-12-28T16:56:51;19.93;;;8.93;;
68108;SDS011;54893;49.864;19.084;2023-12-28T17:01:51;21.90;;;9.30;;
68108;SDS011;54893;49.864;19.084;2023-12-28T17:06:52;22.80;;;9.67;;
68108;SDS011;54893;49.864;19.084;2023-12-28T17:12:13;23.83;;;9.43;;
68108;SDS011;54893;49.864;19.084;2023-12-28T17:17:18;23.55;;;10.13;;
68108;SDS011;54893;49.864;19.084;2023-12-28T17:22:18;17.63;;;7.30;;
68108;SDS011;54893;49.864;19.084;2023-12-28T17:27:24;22.63;;;7.70;;
68108;SDS011;54893;49.864;19.084;2023-12-28T17:32:30;20.17;;;8.17;;
68108;SDS011;54893;49.864;19.084;2023-12-28T17:37:33;22.30;;;7.78;;
68108;SDS011;54893;49.864;19.084;2023-12-28T17:42:34;17.23;;;6.60;;
68108;SDS011;54893;49.864;19.084;2023-12-28T17:48:00;27.08;;;8.85;;
68108;SDS011;54893;49.864;19.084;2023-12-28T17:53:06;26.23;;;9.88;;
68108;SDS011;54893;49.864;19.084;2023-12-28T17:58:07;19.27;;;7.90;;
68108;SDS011;54893;49.864;19.084;2023-12-28T18:03:07;21.63;;;8.20;;
68108;SDS011;54893;49.864;19.084;2023-12-28T18:08:07;14.83;;;6.73;;
68108;SDS011;54893;49.864;19.084;2023-12-28T18:13:08;14.20;;;6.10;;
68108;SDS011;54893;49.864;19.084;2023-12-28T18:18:08;12.70;;;5.17;;
68108;SDS011;54893;49.864;19.084;2023-12-28T18:23:09;13.57;;;5.80;;
68108;SDS011;54893;49.864;19.084;2023-12-28T18:28:09;17.00;;;5.67;;
68108;SDS011;54893;49.864;19.084;2023-12-28T18:33:10;24.37;;;8.70;;
68108;SDS011;54893;49.864;19.084;2023-12-28T18:38:10;23.67;;;8.97;;
68108;SDS011;54893;49.864;19.084;2023-12-28T18:43:10;32.33;;;11.67;;
68108;SDS011;54893;49.864;19.084;2023-12-28T18:48:11;26.02;;;9.70;;
68108;SDS011;54893;49.864;19.084;2023-12-28T18:53:12;21.53;;;8.13;;
68108;SDS011;54893;49.864;19.084;2023-12-28T18:58:13;16.63;;;6.27;;
68108;SDS011;54893;49.864;19.084;2023-12-28T19:03:13;18.57;;;6.37;;
68108;SDS011;54893;49.864;19.084;2023-12-28T19:08:13;17.07;;;5.80;;
68108;SDS011;54893;49.864;19.084;2023-12-28T19:13:14;14.87;;;5.77;;
68108;SDS011;54893;49.864;19.084;2023-12-28T19:18:14;18.10;;;7.27;;
68108;SDS011;54893;49.864;19.084;2023-12-28T19:23:16;16.60;;;5.88;;
68108;SDS011;54893;49.864;19.084;2023-12-28T19:28:16;18.77;;;6.50;;
68108;SDS011;54893;49.864;19.084;2023-12-28T19:33:17;23.97;;;8.90;;
68108;SDS011;54893;49.864;19.084;2023-12-28T19:38:17;16.87;;;6.07;;
68108;SDS011;54893;49.864;19.084;2023-12-28T19:43:18;14.70;;;5.60;;
68108;SDS011;54893;49.864;19.084;2023-12-28T19:48:18;12.17;;;4.37;;
68108;SDS011;54893;49.864;19.084;2023-12-28T19:53:19;14.07;;;5.60;;
68108;SDS011;54893;49.864;19.084;2023-12-28T19:58:21;13.93;;;5.10;;
68108;SDS011;54893;49.864;19.084;2023-12-28T20:03:22;11.05;;;4.40;;
68108;SDS011;54893;49.864;19.084;2023-12-28T20:08:22;9.18;;;4.35;;
68108;SDS011;54893;49.864;19.084;2023-12-28T20:13:22;10.43;;;4.63;;
68108;SDS011;54893;49.864;19.084;2023-12-28T20:18:23;14.87;;;5.10;;
68108;SDS011;54893;49.864;19.084;2023-12-28T20:23:23;13.73;;;5.70;;
68108;SDS011;54893;49.864;19.084;2023-12-28T20:28:25;11.70;;;4.25;;
68108;SDS011;54893;49.864;19.084;2023-12-28T20:33:25;11.90;;;4.68;;
68108;SDS011;54893;49.864;19.084;2023-12-28T20:38:26;11.70;;;5.10;;
68108;SDS011;54893;49.864;19.084;2023-12-28T20:43:29;11.10;;;4.80;;
68108;SDS011;54893;49.864;19.084;2023-12-28T20:48:29;10.95;;;4.90;;
68108;SDS011;54893;49.864;19.084;2023-12-28T20:53:30;14.20;;;5.50;;
68108;SDS011;54893;49.864;19.084;2023-12-28T20:58:34;12.80;;;5.82;;
68108;SDS011;54893;49.864;19.084;2023-12-28T21:03:35;32.67;;;12.97;;
68108;SDS011;54893;49.864;19.084;2023-12-28T21:08:36;43.80;;;18.37;;
68108;SDS011;54893;49.864;19.084;2023-12-28T21:13:38;53.08;;;26.33;;
68108;SDS011;54893;49.864;19.084;2023-12-28T21:18:39;36.20;;;16.17;;
68108;SDS011;54893;49.864;19.084;2023-12-28T21:23:40;50.57;;;23.37;;
68108;SDS011;54893;49.864;19.084;2023-12-28T21:28:40;50.57;;;22.70;;
68108;SDS011;54893;49.864;19.084;2023-12-28T21:33:40;53.83;;;27.00;;
68108;SDS011;54893;49.864;19.084;2023-12-28T21:38:42;51.80;;;20.73;;
68108;SDS011;54893;49.864;19.084;2023-12-28T21:43:43;44.87;;;19.40;;
68108;SDS011;54893;49.864;19.084;2023-12-28T21:48:43;43.30;;;18.97;;
68108;SDS011;54893;49.864;19.084;2023-12-28T21:53:44;44.67;;;18.00;;
68108;SDS011;54893;49.864;19.084;2023-12-28T21:58:44;45.77;;;18.53;;
68108;SDS011;54893;49.864;19.084;2023-12-28T22:03:44;47.00;;;19.47;;
68108;SDS011;54893;49.864;19.084;2023-12-28T22:08:45;46.93;;;20.83;;
68108;SDS011;54893;49.864;19.084;2023-12-28T22:13:46;46.80;;;19.65;;
68108;SDS011;54893;49.864;19.084;2023-12-28T22:18:47;44.37;;;17.43;;
68108;SDS011;54893;49.864;19.084;2023-12-28T22:23:47;48.33;;;18.57;;
68108;SDS011;54893;49.864;19.084;2023-12-28T22:28:49;41.13;;;17.55;;
68108;SDS011;54893;49.864;19.084;2023-12-28T22:33:50;47.17;;;19.92;;
68108;SDS011;54893;49.864;19.084;2023-12-28T22:38:50;49.97;;;21.07;;
68108;SDS011;54893;49.864;19.084;2023-12-28T22:43:51;47.27;;;19.37;;
68108;SDS011;54893;49.864;19.084;2023-12-28T22:48:51;50.37;;;19.30;;
68108;SDS011;54893;49.864;19.084;2023-12-28T22:53:51;47.80;;;19.03;;
68108;SDS011;54893;49.864;19.084;2023-12-28T22:58:52;42.83;;;17.73;;
68108;SDS011;54893;49.864;19.084;2023-12-28T23:03:52;51.07;;;22.33;;
68108;SDS011;54893;49.864;19.084;2023-12-28T23:08:53;57.70;;;21.37;;
68108;SDS011;54893;49.864;19.084;2023-12-28T23:13:53;56.55;;;22.67;;
68108;SDS011;54893;49.864;19.084;2023-12-28T23:18:54;48.13;;;18.60;;
68108;SDS011;54893;49.864;19.084;2023-12-28T23:23:55;52.77;;;21.93;;
68108;SDS011;54893;49.864;19.084;2023-12-28T23:28:55;53.40;;;21.80;;
68108;SDS011;54893;49.864;19.084;2023-12-28T23:33:56;55.17;;;22.13;;
68108;SDS011;54893;49.864;19.084;2023-12-28T23:38:56;55.00;;;23.73;;
68108;SDS011;54893;49.864;19.084;2023-12-28T23:43:56;65.13;;;25.57;;
68108;SDS011;54893;49.864;19.084;2023-12-28T23:48:56;61.43;;;24.63;;
68108;SDS011;54893;49.864;19.084;2023-12-28T23:53:57;60.60;;;24.53;;
68108;SDS011;54893;49.864;19.084;2023-12-28T23:58:57;53.00;;;20.77;;
